sensor_id;sensor_type;location;lat;lon;timestamp;pressure;altitude;pressure_sealevel;temperature;humidity
41140;BME280;26881;48.784;9.192;2023-02-18T00:03:10;99495.00;;;12.18;75.62
41140;BME280;26881;48.784;9.192;2023-02-18T00:08:32;99484.25;;;12.23;75.56
41140;BME280;26881;48.784;9.192;2023-02-18T00:13:56;99501.84;;;12.21;75.41
41140;BME280;26881;48.784;9.192;2023-02-18T00:19:20;99499.88;;;12.26;75.33
41140;BME280;26881;48.784;9.192;2023-02-18T00:24:42;99496.16;;;12.13;75.43
41140;BME280;26881;48.784;9.192;2023-02-18T00:30:04;99495.16;;;12.15;75.51
41140;BME280;26881;48.784;9.192;2023-02-18T00:35:26;99497.53;;;12.20;75.57
41140;BME280;26881;48.784;9.192;2023-02-18T00:40:48;99500.00;;;12.23;74.89
41140;BME280;26881;48.784;9.192;2023-02-18T00:46:10;99482.72;;;12.19;74.90
41140;BME280;26881;48.784;9.192;2023-02-18T00:51:32;99467.16;;;12.16;74.92
41140;BME280;26881;48.784;9.192;2023-02-18T00:56:54;99455.81;;;12.15;74.79
41140;BME280;26881;48.784;9.192;2023-02-18T01:02:16;99462.91;;;12.13;75.21
41140;BME280;26881;48.784;9.192;2023-02-18T01:07:38;99457.44;;;12.18;75.06
41140;BME280;26881;48.784;9.192;2023-02-18T01:13:00;99461.97;;;12.14;74.92
41140;BME280;26881;48.784;9.192;2023-02-18T01:18:25;99448.03;;;12.14;74.51
41140;BME280;26881;48.784;9.192;2023-02-18T01:23:48;99440.09;;;12.15;74.73
41140;BME280;26881;48.784;9.192;2023-02-18T01:29:10;99457.50;;;12.16;74.71
41140;BME280;26881;48.784;9.192;2023-02-18T01:34:32;99454.97;;;12.15;74.57
41140;BME280;26881;48.784;9.192;2023-02-18T01:39:54;99449.72;;;12.15;74.35
41140;BME280;26881;48.784;9.192;2023-02-18T01:51:17;99432.00;;;12.02;74.70
41140;BME280;26881;48.784;9.192;2023-02-18T01:56:50;99436.50;;;12.00;75.10
41140;BME280;26881;48.784;9.192;2023-02-18T02:02:18;99430.84;;;12.08;74.32
41140;BME280;26881;48.784;9.192;2023-02-18T02:07:41;99436.69;;;12.13;73.84
41140;BME280;26881;48.784;9.192;2023-02-18T02:13:34;99423.28;;;12.02;74.28
41140;BME280;26881;48.784;9.192;2023-02-18T02:19:18;99457.47;;;12.00;74.70
41140;BME280;26881;48.784;9.192;2023-02-18T02:36:48;99424.75;;;12.08;73.48
41140;BME280;26881;48.784;9.192;2023-02-18T02:42:25;99420.91;;;11.97;74.26
41140;BME280;26881;48.784;9.192;2023-02-18T02:47:58;99414.50;;;12.03;73.40
41140;BME280;26881;48.784;9.192;2023-02-18T02:53:25;99414.66;;;12.00;73.49
41140;BME280;26881;48.784;9.192;2023-02-18T02:59:00;99406.88;;;11.98;73.70
41140;BME280;26881;48.784;9.192;2023-02-18T03:04:37;99416.41;;;11.99;74.02
41140;BME280;26881;48.784;9.192;2023-02-18T03:16:13;99427.38;;;11.90;73.89
41140;BME280;26881;48.784;9.192;2023-02-18T03:21:47;99409.09;;;11.71;74.92
41140;BME280;26881;48.784;9.192;2023-02-18T03:27:15;99396.59;;;11.76;74.50
41140;BME280;26881;48.784;9.192;2023-02-18T03:32:38;99391.88;;;11.83;74.49
41140;BME280;26881;48.784;9.192;2023-02-18T03:38:14;99385.75;;;11.84;74.14
41140;BME280;26881;48.784;9.192;2023-02-18T03:43:39;99389.44;;;11.63;75.05
41140;BME280;26881;48.784;9.192;2023-02-18T03:49:02;99379.28;;;11.56;75.59
41140;BME280;26881;48.784;9.192;2023-02-18T03:54:23;99390.28;;;11.46;75.89
41140;BME280;26881;48.784;9.192;2023-02-18T03:59:45;99400.97;;;11.41;76.41
41140;BME280;26881;48.784;9.192;2023-02-18T04:05:08;99392.94;;;11.27;77.04
41140;BME280;26881;48.784;9.192;2023-02-18T04:10:30;99399.97;;;11.26;77.18
41140;BME280;26881;48.784;9.192;2023-02-18T04:15:51;99389.09;;;11.34;77.09
41140;BME280;26881;48.784;9.192;2023-02-18T04:21:13;99381.88;;;11.39;76.99
41140;BME280;26881;48.784;9.192;2023-02-18T04:26:35;99370.63;;;11.37;77.10
41140;BME280;26881;48.784;9.192;2023-02-18T04:31:56;99369.16;;;11.31;77.19
41140;BME280;26881;48.784;9.192;2023-02-18T04:37:18;99371.38;;;11.22;78.04
41140;BME280;26881;48.784;9.192;2023-02-18T04:42:40;99382.63;;;11.24;77.39
41140;BME280;26881;48.784;9.192;2023-02-18T04:48:02;99373.53;;;11.13;77.72
41140;BME280;26881;48.784;9.192;2023-02-18T04:53:24;99386.81;;;11.09;78.19
41140;BME280;26881;48.784;9.192;2023-02-18T04:58:46;99381.25;;;10.97;78.56
41140;BME280;26881;48.784;9.192;2023-02-18T05:04:07;99387.97;;;11.03;78.62
41140;BME280;26881;48.784;9.192;2023-02-18T05:09:29;99382.25;;;10.95;78.86
41140;BME280;26881;48.784;9.192;2023-02-18T05:14:51;99379.63;;;10.95;78.58
41140;BME280;26881;48.784;9.192;2023-02-18T05:20:13;99389.31;;;10.93;78.27
41140;BME280;26881;48.784;9.192;2023-02-18T05:25:35;99397.31;;;10.90;78.40
41140;BME280;26881;48.784;9.192;2023-02-18T05:30:56;99377.84;;;10.95;78.04
41140;BME280;26881;48.784;9.192;2023-02-18T05:36:19;99383.19;;;10.94;78.16
41140;BME280;26881;48.784;9.192;2023-02-18T05:41:41;99372.00;;;10.90;78.54
41140;BME280;26881;48.784;9.192;2023-02-18T05:47:08;99368.69;;;10.87;78.83
41140;BME280;26881;48.784;9.192;2023-02-18T05:52:32;99368.69;;;10.87;79.16
41140;BME280;26881;48.784;9.192;2023-02-18T05:57:53;99362.53;;;10.88;79.30
41140;BME280;26881;48.784;9.192;2023-02-18T06:03:15;99369.16;;;10.95;79.35
41140;BME280;26881;48.784;9.192;2023-02-18T06:08:37;99365.72;;;10.94;79.34
41140;BME280;26881;48.784;9.192;2023-02-18T06:13:59;99368.81;;;11.03;79.19
41140;BME280;26881;48.784;9.192;2023-02-18T06:19:21;99371.66;;;10.98;79.43
41140;BME280;26881;48.784;9.192;2023-02-18T06:24:43;99373.13;;;11.04;79.03
41140;BME280;26881;48.784;9.192;2023-02-18T06:30:05;99368.31;;;10.94;79.61
41140;BME280;26881;48.784;9.192;2023-02-18T06:35:27;99367.63;;;10.91;79.90
41140;BME280;26881;48.784;9.192;2023-02-18T06:40:49;99368.38;;;10.93;80.11
41140;BME280;26881;48.784;9.192;2023-02-18T06:46:11;99368.94;;;11.00;79.87
41140;BME280;26881;48.784;9.192;2023-02-18T06:51:32;99371.91;;;11.11;79.34
41140;BME280;26881;48.784;9.192;2023-02-18T06:56:54;99370.69;;;11.18;79.21
41140;BME280;26881;48.784;9.192;2023-02-18T07:02:16;99377.53;;;11.21;79.01
41140;BME280;26881;48.784;9.192;2023-02-18T07:07:38;99376.84;;;11.17;79.61
41140;BME280;26881;48.784;9.192;2023-02-18T07:12:59;99379.84;;;11.27;79.19
41140;BME280;26881;48.784;9.192;2023-02-18T07:18:21;99369.16;;;11.31;78.32
41140;BME280;26881;48.784;9.192;2023-02-18T07:23:43;99367.72;;;11.43;77.90
41140;BME280;26881;48.784;9.192;2023-02-18T07:29:05;99366.00;;;11.42;77.85
41140;BME280;26881;48.784;9.192;2023-02-18T07:34:26;99365.47;;;11.53;77.16
41140;BME280;26881;48.784;9.192;2023-02-18T07:39:48;99351.34;;;11.55;77.13
41140;BME280;26881;48.784;9.192;2023-02-18T07:45:12;99340.75;;;11.58;77.53
41140;BME280;26881;48.784;9.192;2023-02-18T07:50:34;99340.34;;;11.66;77.28
41140;BME280;26881;48.784;9.192;2023-02-18T07:55:58;99328.56;;;11.75;76.35
41140;BME280;26881;48.784;9.192;2023-02-18T08:01:20;99332.69;;;11.79;76.88
41140;BME280;26881;48.784;9.192;2023-02-18T08:06:44;99332.25;;;11.88;75.59
41140;BME280;26881;48.784;9.192;2023-02-18T08:12:07;99344.34;;;11.91;75.49
41140;BME280;26881;48.784;9.192;2023-02-18T08:17:29;99332.59;;;11.98;75.02
41140;BME280;26881;48.784;9.192;2023-02-18T08:22:51;99354.09;;;12.05;74.13
41140;BME280;26881;48.784;9.192;2023-02-18T08:28:13;99350.31;;;12.10;74.22
41140;BME280;26881;48.784;9.192;2023-02-18T08:33:34;99343.97;;;12.14;73.99
41140;BME280;26881;48.784;9.192;2023-02-18T08:38:56;99333.41;;;12.16;73.89
41140;BME280;26881;48.784;9.192;2023-02-18T08:44:18;99327.59;;;12.27;73.29
41140;BME280;26881;48.784;9.192;2023-02-18T08:49:40;99337.25;;;12.26;73.01
41140;BME280;26881;48.784;9.192;2023-02-18T08:55:04;99327.50;;;12.28;73.07
41140;BME280;26881;48.784;9.192;2023-02-18T09:00:26;99325.16;;;12.39;71.74
41140;BME280;26881;48.784;9.192;2023-02-18T09:05:48;99328.09;;;12.49;71.13
41140;BME280;26881;48.784;9.192;2023-02-18T09:11:10;99319.06;;;12.55;71.02
41140;BME280;26881;48.784;9.192;2023-02-18T09:16:32;99316.84;;;12.63;70.09
41140;BME280;26881;48.784;9.192;2023-02-18T09:21:54;99310.50;;;12.67;70.23
41140;BME280;26881;48.784;9.192;2023-02-18T09:27:20;99313.72;;;12.72;69.24
41140;BME280;26881;48.784;9.192;2023-02-18T09:32:42;99297.63;;;12.78;68.84
41140;BME280;26881;48.784;9.192;2023-02-18T09:38:04;99295.59;;;12.83;69.02
41140;BME280;26881;48.784;9.192;2023-02-18T09:43:31;99300.84;;;12.83;68.23
41140;BME280;26881;48.784;9.192;2023-02-18T09:48:54;99290.34;;;12.83;68.29
41140;BME280;26881;48.784;9.192;2023-02-18T09:54:17;99288.56;;;12.84;67.87
41140;BME280;26881;48.784;9.192;2023-02-18T09:59:41;99289.25;;;12.88;68.18
41140;BME280;26881;48.784;9.192;2023-02-18T10:05:03;99296.66;;;12.95;67.63
41140;BME280;26881;48.784;9.192;2023-02-18T10:10:41;99291.34;;;12.97;67.69
41140;BME280;26881;48.784;9.192;2023-02-18T10:16:04;99293.00;;;12.98;67.57
41140;BME280;26881;48.784;9.192;2023-02-18T10:21:28;99296.34;;;13.01;67.31
41140;BME280;26881;48.784;9.192;2023-02-18T10:26:52;99303.19;;;13.04;67.37
41140;BME280;26881;48.784;9.192;2023-02-18T10:32:24;99302.22;;;13.05;67.18
41140;BME280;26881;48.784;9.192;2023-02-18T10:43:46;99286.13;;;13.11;66.80
41140;BME280;26881;48.784;9.192;2023-02-18T10:49:42;99286.88;;;13.13;66.74
41140;BME280;26881;48.784;9.192;2023-02-18T10:55:15;99289.06;;;13.21;66.08
41140;BME280;26881;48.784;9.192;2023-02-18T11:00:39;99280.06;;;13.25;65.74
41140;BME280;26881;48.784;9.192;2023-02-18T11:06:01;99278.13;;;13.28;65.53
41140;BME280;26881;48.784;9.192;2023-02-18T11:11:27;99278.88;;;13.31;65.04
41140;BME280;26881;48.784;9.192;2023-02-18T11:16:51;99267.34;;;13.33;65.23
41140;BME280;26881;48.784;9.192;2023-02-18T11:27:50;99253.94;;;13.38;63.87
41140;BME280;26881;48.784;9.192;2023-02-18T11:39:22;99250.19;;;13.42;62.12
41140;BME280;26881;48.784;9.192;2023-02-18T11:50:19;99229.84;;;13.45;61.89
41140;BME280;26881;48.784;9.192;2023-02-18T11:55:53;99229.31;;;13.55;60.79
41140;BME280;26881;48.784;9.192;2023-02-18T12:06:51;99215.75;;;13.61;60.93
41140;BME280;26881;48.784;9.192;2023-02-18T12:12:19;99219.34;;;13.60;61.07
41140;BME280;26881;48.784;9.192;2023-02-18T12:18:10;99214.00;;;13.61;60.31
41140;BME280;26881;48.784;9.192;2023-02-18T12:29:43;99211.09;;;13.66;59.82
41140;BME280;26881;48.784;9.192;2023-02-18T12:35:31;99198.59;;;13.69;59.73
41140;BME280;26881;48.784;9.192;2023-02-18T13:04:24;99179.41;;;13.82;57.77
41140;BME280;26881;48.784;9.192;2023-02-18T13:10:28;99182.91;;;13.82;57.51
41140;BME280;26881;48.784;9.192;2023-02-18T13:16:15;99184.22;;;13.75;57.87
41140;BME280;26881;48.784;9.192;2023-02-18T13:21:41;99173.81;;;13.74;57.76
41140;BME280;26881;48.784;9.192;2023-02-18T13:49:43;99144.69;;;13.77;57.28
41140;BME280;26881;48.784;9.192;2023-02-18T13:55:05;99150.50;;;13.82;56.95
41140;BME280;26881;48.784;9.192;2023-02-18T14:00:35;99139.22;;;13.80;56.63
41140;BME280;26881;48.784;9.192;2023-02-18T14:05:57;99129.59;;;13.80;56.01
41140;BME280;26881;48.784;9.192;2023-02-18T14:11:23;99110.59;;;13.89;55.58
41140;BME280;26881;48.784;9.192;2023-02-18T14:22:46;99101.75;;;14.18;56.59
41140;BME280;26881;48.784;9.192;2023-02-18T14:45:56;99093.94;;;14.03;56.72
41140;BME280;26881;48.784;9.192;2023-02-18T14:50:55;99092.00;;;14.05;56.55
41140;BME280;26881;48.784;9.192;2023-02-18T14:56:21;99112.50;;;14.00;56.95
41140;BME280;26881;48.784;9.192;2023-02-18T15:01:45;99110.84;;;13.99;57.19
41140;BME280;26881;48.784;9.192;2023-02-18T15:07:08;99108.09;;;14.01;57.47
41140;BME280;26881;48.784;9.192;2023-02-18T15:12:30;99112.72;;;13.97;57.81
41140;BME280;26881;48.784;9.192;2023-02-18T15:17:52;99116.28;;;13.96;57.82
41140;BME280;26881;48.784;9.192;2023-02-18T15:23:15;99108.81;;;13.90;57.81
41140;BME280;26881;48.784;9.192;2023-02-18T15:28:41;99128.25;;;13.87;58.07
41140;BME280;26881;48.784;9.192;2023-02-18T15:39:45;99126.09;;;13.80;58.49
41140;BME280;26881;48.784;9.192;2023-02-18T15:45:27;99119.25;;;13.77;58.93
41140;BME280;26881;48.784;9.192;2023-02-18T15:50:53;99114.19;;;13.74;59.04
41140;BME280;26881;48.784;9.192;2023-02-18T15:56:30;99122.28;;;13.71;59.42
41140;BME280;26881;48.784;9.192;2023-02-18T16:02:36;99103.34;;;13.66;59.44
41140;BME280;26881;48.784;9.192;2023-02-18T16:07:51;99116.75;;;13.61;59.91
41140;BME280;26881;48.784;9.192;2023-02-18T16:13:15;99105.97;;;13.52;60.37
41140;BME280;26881;48.784;9.192;2023-02-18T16:18:39;99101.66;;;13.51;60.88
41140;BME280;26881;48.784;9.192;2023-02-18T16:24:03;99091.97;;;13.51;60.93
41140;BME280;26881;48.784;9.192;2023-02-18T16:29:43;99098.19;;;13.50;61.04
41140;BME280;26881;48.784;9.192;2023-02-18T16:35:05;99093.09;;;13.47;61.12
41140;BME280;26881;48.784;9.192;2023-02-18T16:40:28;99082.78;;;13.44;61.49
41140;BME280;26881;48.784;9.192;2023-02-18T16:45:53;99082.25;;;13.39;61.66
41140;BME280;26881;48.784;9.192;2023-02-18T16:51:29;99096.50;;;13.35;61.84
41140;BME280;26881;48.784;9.192;2023-02-18T16:56:51;99107.84;;;13.35;61.94
41140;BME280;26881;48.784;9.192;2023-02-18T17:02:17;99105.34;;;13.34;61.62
41140;BME280;26881;48.784;9.192;2023-02-18T17:07:40;99112.19;;;13.36;61.74
41140;BME280;26881;48.784;9.192;2023-02-18T17:13:02;99110.75;;;13.31;61.92
41140;BME280;26881;48.784;9.192;2023-02-18T17:18:25;99111.44;;;13.34;62.19
41140;BME280;26881;48.784;9.192;2023-02-18T17:23:48;99116.31;;;13.40;62.08
41140;BME280;26881;48.784;9.192;2023-02-18T17:29:10;99140.41;;;13.33;62.46
41140;BME280;26881;48.784;9.192;2023-02-18T17:34:32;99152.63;;;13.34;62.70
41140;BME280;26881;48.784;9.192;2023-02-18T17:39:56;99156.16;;;13.33;62.82
41140;BME280;26881;48.784;9.192;2023-02-18T17:45:31;99166.59;;;13.34;62.97
41140;BME280;26881;48.784;9.192;2023-02-18T17:50:54;99167.13;;;13.25;64.17
41140;BME280;26881;48.784;9.192;2023-02-18T17:56:16;99164.78;;;13.20;64.10
41140;BME280;26881;48.784;9.192;2023-02-18T18:01:38;99176.22;;;13.19;64.36
41140;BME280;26881;48.784;9.192;2023-02-18T18:07:00;99186.91;;;13.16;64.92
41140;BME280;26881;48.784;9.192;2023-02-18T18:12:22;99175.53;;;13.01;65.60
41140;BME280;26881;48.784;9.192;2023-02-18T18:17:44;99177.50;;;12.98;66.03
41140;BME280;26881;48.784;9.192;2023-02-18T18:23:06;99181.72;;;13.00;65.64
41140;BME280;26881;48.784;9.192;2023-02-18T18:28:28;99184.06;;;13.05;65.33
41140;BME280;26881;48.784;9.192;2023-02-18T18:33:54;99195.50;;;13.04;65.59
41140;BME280;26881;48.784;9.192;2023-02-18T18:39:18;99189.69;;;12.99;66.02
41140;BME280;26881;48.784;9.192;2023-02-18T18:44:44;99202.25;;;12.94;66.15
41140;BME280;26881;48.784;9.192;2023-02-18T18:50:06;99214.63;;;12.92;66.55
41140;BME280;26881;48.784;9.192;2023-02-18T18:55:31;99209.19;;;12.95;66.30
41140;BME280;26881;48.784;9.192;2023-02-18T19:00:55;99212.91;;;12.91;66.84
41140;BME280;26881;48.784;9.192;2023-02-18T19:06:18;99216.22;;;12.94;66.81
41140;BME280;26881;48.784;9.192;2023-02-18T19:11:39;99217.81;;;12.97;66.83
41140;BME280;26881;48.784;9.192;2023-02-18T19:17:02;99218.53;;;12.84;67.23
41140;BME280;26881;48.784;9.192;2023-02-18T19:22:24;99219.81;;;12.77;67.86
41140;BME280;26881;48.784;9.192;2023-02-18T19:27:48;99223.94;;;12.81;67.56
41140;BME280;26881;48.784;9.192;2023-02-18T19:33:12;99227.78;;;12.76;67.85
41140;BME280;26881;48.784;9.192;2023-02-18T19:38:35;99228.81;;;12.73;67.96
41140;BME280;26881;48.784;9.192;2023-02-18T19:43:57;99240.59;;;12.66;68.37
41140;BME280;26881;48.784;9.192;2023-02-18T19:49:24;99227.09;;;12.72;68.83
41140;BME280;26881;48.784;9.192;2023-02-18T19:54:46;99236.75;;;12.72;68.85
41140;BME280;26881;48.784;9.192;2023-02-18T20:00:11;99235.66;;;12.76;69.19
41140;BME280;26881;48.784;9.192;2023-02-18T20:05:36;99242.28;;;12.67;69.79
41140;BME280;26881;48.784;9.192;2023-02-18T20:10:58;99233.38;;;12.70;70.22
41140;BME280;26881;48.784;9.192;2023-02-18T20:16:20;99231.00;;;12.65;71.14
41140;BME280;26881;48.784;9.192;2023-02-18T20:21:42;99232.31;;;12.58;71.83
41140;BME280;26881;48.784;9.192;2023-02-18T20:27:07;99233.81;;;12.62;72.51
41140;BME280;26881;48.784;9.192;2023-02-18T20:32:29;99228.41;;;12.49;74.14
41140;BME280;26881;48.784;9.192;2023-02-18T20:37:51;99231.97;;;12.32;75.77
41140;BME280;26881;48.784;9.192;2023-02-18T20:43:14;99237.41;;;12.29;75.84
41140;BME280;26881;48.784;9.192;2023-02-18T20:48:37;99226.56;;;12.35;75.60
41140;BME280;26881;48.784;9.192;2023-02-18T20:53:58;99226.22;;;12.26;76.22
41140;BME280;26881;48.784;9.192;2023-02-18T20:59:21;99224.13;;;12.16;75.91
41140;BME280;26881;48.784;9.192;2023-02-18T21:04:43;99224.03;;;12.18;75.36
41140;BME280;26881;48.784;9.192;2023-02-18T21:10:05;99221.59;;;12.15;74.92
41140;BME280;26881;48.784;9.192;2023-02-18T21:15:27;99224.13;;;12.16;74.30
41140;BME280;26881;48.784;9.192;2023-02-18T21:20:49;99230.38;;;12.14;74.26
41140;BME280;26881;48.784;9.192;2023-02-18T21:26:14;99225.00;;;12.17;74.41
41140;BME280;26881;48.784;9.192;2023-02-18T21:31:39;99225.97;;;12.14;74.01
41140;BME280;26881;48.784;9.192;2023-02-18T21:37:01;99229.03;;;12.07;74.85
41140;BME280;26881;48.784;9.192;2023-02-18T21:42:23;99233.69;;;12.01;74.95
41140;BME280;26881;48.784;9.192;2023-02-18T21:47:45;99224.13;;;12.00;75.42
41140;BME280;26881;48.784;9.192;2023-02-18T21:53:07;99218.44;;;11.92;75.63
41140;BME280;26881;48.784;9.192;2023-02-18T21:58:29;99228.34;;;11.87;76.47
41140;BME280;26881;48.784;9.192;2023-02-18T22:03:53;99225.00;;;11.84;77.25
41140;BME280;26881;48.784;9.192;2023-02-18T22:09:15;99217.38;;;11.79;78.88
41140;BME280;26881;48.784;9.192;2023-02-18T22:14:38;99218.03;;;11.67;79.95
41140;BME280;26881;48.784;9.192;2023-02-18T22:20:00;99212.84;;;11.49;81.63
41140;BME280;26881;48.784;9.192;2023-02-18T22:25:22;99213.16;;;11.43;82.54
41140;BME280;26881;48.784;9.192;2023-02-18T22:30:43;99208.34;;;11.35;84.57
41140;BME280;26881;48.784;9.192;2023-02-18T22:36:06;99199.25;;;11.25;86.34
41140;BME280;26881;48.784;9.192;2023-02-18T22:41:30;99203.22;;;11.16;87.33
41140;BME280;26881;48.784;9.192;2023-02-18T22:46:55;99200.13;;;11.08;89.12
41140;BME280;26881;48.784;9.192;2023-02-18T22:52:18;99189.50;;;10.94;90.32
41140;BME280;26881;48.784;9.192;2023-02-18T22:57:39;99182.44;;;10.96;90.93
41140;BME280;26881;48.784;9.192;2023-02-18T23:03:01;99182.88;;;11.04;90.61
41140;BME280;26881;48.784;9.192;2023-02-18T23:08:23;99176.19;;;10.99;90.94
41140;BME280;26881;48.784;9.192;2023-02-18T23:13:45;99169.22;;;10.82;91.45
41140;BME280;26881;48.784;9.192;2023-02-18T23:19:31;99156.88;;;10.84;91.21
41140;BME280;26881;48.784;9.192;2023-02-18T23:24:53;99156.97;;;10.82;90.52
41140;BME280;26881;48.784;9.192;2023-02-18T23:30:15;99155.03;;;10.86;91.11
41140;BME280;26881;48.784;9.192;2023-02-18T23:35:37;99138.31;;;10.88;90.59
41140;BME280;26881;48.784;9.192;2023-02-18T23:40:58;99140.31;;;11.01;89.93
41140;BME280;26881;48.784;9.192;2023-02-18T23:46:22;99135.31;;;10.96;90.35
41140;BME280;26881;48.784;9.192;2023-02-18T23:51:44;99141.16;;;11.01;89.57
41140;BME280;26881;48.784;9.192;2023-02-18T23:57:06;99133.91;;;11.06;89.38
